createdAt,value
2022-12-08T00:01:27.051Z,6.10
2022-12-08T00:03:54.944Z,6.10
2022-12-08T00:06:54.620Z,6.00
2022-12-08T00:09:24.335Z,6.10
2022-12-08T00:12:06.519Z,6.10
2022-12-08T00:14:38.976Z,6.20
2022-12-08T00:17:08.183Z,6.20
2022-12-08T00:19:35.230Z,6.20
2022-12-08T00:22:03.362Z,6.10
2022-12-08T00:24:33.260Z,6.20
2022-12-08T00:27:00.498Z,6.20
2022-12-08T00:29:27.547Z,6.20
2022-12-08T00:31:54.615Z,6.10
2022-12-08T00:34:21.582Z,6.20
2022-12-08T00:36:48.789Z,6.10
2022-12-08T00:39:17.072Z,6.10
2022-12-08T00:42:02.913Z,6.10
2022-12-08T00:44:30.230Z,6.20
2022-12-08T00:46:57.124Z,6.20
2022-12-08T00:49:24.440Z,6.10
2022-12-08T00:51:51.740Z,6.10
2022-12-08T00:54:19.446Z,6.20
2022-12-08T00:56:46.769Z,6.00
2022-12-08T00:59:13.851Z,6.10
2022-12-08T01:01:40.919Z,6.20
2022-12-08T01:04:13.339Z,6.30
2022-12-08T01:06:40.219Z,6.30
2022-12-08T01:09:08.424Z,6.30
2022-12-08T01:11:36.442Z,6.30
2022-12-08T01:14:05.142Z,6.20
2022-12-08T01:16:34.494Z,6.10
2022-12-08T01:19:01.868Z,6.20
2022-12-08T01:21:29.351Z,6.10
2022-12-08T01:23:58.015Z,6.30
2022-12-08T01:26:24.961Z,6.30
2022-12-08T01:28:52.461Z,6.30
2022-12-08T01:31:21.078Z,6.30
2022-12-08T01:33:49.475Z,6.20
2022-12-08T01:36:25.045Z,6.20
2022-12-08T01:38:53.130Z,6.10
2022-12-08T01:41:22.722Z,6.00
2022-12-08T01:44:08.423Z,6.00
2022-12-08T01:46:38.261Z,6.00
2022-12-08T01:49:13.673Z,5.90
2022-12-08T01:51:55.043Z,5.70
2022-12-08T01:54:26.934Z,5.80
2022-12-08T01:56:58.064Z,5.70
2022-12-08T01:59:26.084Z,5.80
2022-12-08T02:01:53.337Z,5.80
2022-12-08T02:04:20.846Z,5.80
2022-12-08T02:06:49.363Z,5.90
2022-12-08T02:09:16.593Z,5.90
2022-12-08T02:11:43.464Z,5.90
2022-12-08T02:14:14.082Z,5.90
2022-12-08T02:16:50.009Z,5.80
2022-12-08T02:19:35.130Z,5.70
2022-12-08T02:22:10.684Z,5.50
2022-12-08T02:24:43.596Z,5.50
2022-12-08T02:27:49.563Z,5.60
2022-12-08T02:30:41.080Z,5.40
2022-12-08T02:33:50.301Z,5.50
2022-12-08T02:36:54.048Z,5.60
2022-12-08T02:39:23.844Z,5.50
2022-12-08T02:42:08.481Z,5.50
2022-12-08T02:44:52.931Z,5.50
2022-12-08T02:47:22.138Z,5.40
2022-12-08T02:49:49.317Z,5.20
2022-12-08T02:52:19.657Z,5.10
2022-12-08T02:55:01.782Z,5.20
2022-12-08T02:57:51.000Z,5.30
2022-12-08T03:00:21.789Z,5.20
2022-12-08T03:03:04.154Z,5.20
2022-12-08T03:05:31.696Z,5.30
2022-12-08T03:08:13.943Z,5.20
2022-12-08T03:10:43.181Z,5.30
2022-12-08T03:13:19.397Z,5.20
2022-12-08T03:15:50.404Z,5.10
2022-12-08T03:18:22.297Z,5.20
2022-12-08T03:20:50.166Z,5.20
2022-12-08T03:23:18.918Z,5.20
2022-12-08T03:26:08.287Z,5.20
2022-12-08T03:28:35.582Z,5.10
2022-12-08T03:31:06.787Z,5.10
2022-12-08T03:33:38.324Z,5.10
2022-12-08T03:36:07.905Z,5.20
2022-12-08T03:38:44.214Z,4.90
2022-12-08T03:41:21.551Z,5.10
2022-12-08T03:43:51.387Z,5.10
2022-12-08T03:46:19.521Z,5.10
2022-12-08T03:48:46.984Z,5.20
2022-12-08T03:51:14.604Z,5.20
2022-12-08T03:53:41.575Z,5.30
2022-12-08T03:56:38.902Z,5.30
2022-12-08T03:59:07.009Z,5.20
2022-12-08T04:01:34.380Z,5.20
2022-12-08T04:04:02.706Z,5.20
2022-12-08T04:06:29.724Z,5.00
2022-12-08T04:08:57.095Z,5.10
2022-12-08T04:11:24.434Z,5.10
2022-12-08T04:13:51.804Z,5.00
2022-12-08T04:16:24.597Z,5.00
2022-12-08T04:18:51.964Z,4.90
2022-12-08T04:21:19.081Z,4.90
2022-12-08T04:23:46.719Z,4.90
2022-12-08T04:26:14.269Z,4.80
2022-12-08T04:28:41.535Z,5.00
2022-12-08T04:31:08.790Z,5.20
2022-12-08T04:33:35.932Z,5.20
2022-12-08T04:36:04.945Z,5.30
2022-12-08T04:38:32.473Z,5.40
2022-12-08T04:40:59.611Z,5.40
2022-12-08T04:43:26.550Z,5.50
2022-12-08T04:45:53.547Z,5.50
2022-12-08T04:48:20.659Z,5.50
2022-12-08T04:50:47.670Z,5.50
2022-12-08T04:53:15.259Z,5.60
2022-12-08T04:55:44.201Z,5.60
2022-12-08T04:58:16.893Z,5.60
2022-12-08T05:00:44.234Z,5.80
2022-12-08T05:03:11.806Z,5.80
2022-12-08T05:05:38.903Z,5.80
2022-12-08T05:08:06.254Z,6.00
2022-12-08T05:10:33.332Z,6.00
2022-12-08T05:13:00.954Z,5.90
2022-12-08T05:15:28.456Z,6.00
2022-12-08T05:17:55.809Z,6.00
2022-12-08T05:20:22.865Z,5.90
2022-12-08T05:22:50.014Z,5.90
2022-12-08T05:25:17.557Z,5.90
2022-12-08T05:27:44.422Z,5.90
2022-12-08T05:30:11.686Z,5.90
2022-12-08T05:32:38.567Z,5.90
2022-12-08T05:35:06.371Z,6.00
2022-12-08T05:37:33.412Z,6.20
2022-12-08T05:40:00.877Z,6.10
2022-12-08T05:42:28.011Z,6.10
2022-12-08T05:44:55.132Z,6.00
2022-12-08T05:47:22.000Z,6.00
2022-12-08T05:49:48.963Z,5.90
2022-12-08T05:52:17.203Z,6.00
2022-12-08T05:54:44.397Z,6.00
2022-12-08T05:57:11.768Z,6.00
2022-12-08T05:59:39.298Z,6.00
2022-12-08T06:02:06.408Z,5.90
2022-12-08T06:04:33.599Z,5.90
2022-12-08T06:07:00.445Z,5.80
2022-12-08T06:09:28.003Z,5.80
2022-12-08T06:11:55.599Z,5.70
2022-12-08T06:14:23.075Z,5.70
2022-12-08T06:16:50.082Z,5.60
2022-12-08T06:19:17.274Z,5.60
2022-12-08T06:21:44.365Z,5.50
2022-12-08T06:24:12.430Z,5.50
2022-12-08T06:26:41.486Z,5.60
2022-12-08T06:29:08.646Z,5.60
2022-12-08T06:31:35.577Z,5.60
2022-12-08T06:34:06.294Z,5.40
2022-12-08T06:36:34.837Z,5.40
2022-12-08T06:39:02.116Z,5.30
2022-12-08T06:41:29.427Z,5.30
2022-12-08T06:43:59.698Z,5.20
2022-12-08T06:46:26.668Z,5.20
2022-12-08T06:48:54.512Z,5.00
2022-12-08T06:51:23.785Z,4.80
2022-12-08T06:53:50.733Z,4.80
2022-12-08T06:56:20.247Z,4.90
2022-12-08T06:58:52.468Z,5.00
2022-12-08T07:01:20.487Z,5.10
2022-12-08T07:03:48.051Z,5.00
2022-12-08T07:06:25.339Z,5.00
2022-12-08T07:08:52.570Z,4.90
2022-12-08T07:11:22.070Z,5.00
2022-12-08T07:13:49.901Z,4.80
2022-12-08T07:16:17.318Z,4.90
2022-12-08T07:18:44.520Z,4.80
2022-12-08T07:21:15.111Z,4.70
2022-12-08T07:23:42.790Z,4.90
2022-12-08T07:26:12.006Z,5.10
2022-12-08T07:28:41.096Z,5.10
2022-12-08T07:31:16.416Z,5.10
2022-12-08T07:33:43.897Z,5.10
2022-12-08T07:36:12.261Z,5.20
2022-12-08T07:38:39.770Z,5.10
2022-12-08T07:41:11.133Z,5.10
2022-12-08T07:43:38.423Z,5.20
2022-12-08T07:46:05.469Z,5.20
2022-12-08T07:48:32.681Z,4.90
2022-12-08T07:51:03.980Z,5.10
2022-12-08T07:53:31.119Z,5.00
2022-12-08T07:55:58.652Z,5.10
2022-12-08T07:58:26.396Z,5.20
2022-12-08T08:00:54.164Z,5.30
2022-12-08T08:03:22.097Z,5.10
2022-12-08T08:05:50.189Z,5.20
2022-12-08T08:08:17.888Z,5.30
2022-12-08T08:10:47.036Z,5.40
2022-12-08T08:13:14.874Z,5.50
2022-12-08T08:15:42.936Z,5.40
2022-12-08T08:18:11.223Z,5.50
2022-12-08T08:20:38.258Z,5.40
2022-12-08T08:23:05.313Z,5.40
2022-12-08T08:25:32.191Z,5.40
2022-12-08T08:27:59.935Z,5.50
2022-12-08T08:30:27.033Z,5.40
2022-12-08T08:32:54.286Z,5.40
2022-12-08T08:35:21.230Z,5.50
2022-12-08T08:37:49.442Z,5.60
2022-12-08T08:40:18.097Z,5.50
2022-12-08T08:42:45.009Z,5.50
2022-12-08T08:45:11.852Z,5.50
2022-12-08T08:47:38.715Z,5.30
2022-12-08T08:50:06.579Z,5.40
2022-12-08T08:52:33.737Z,5.30
2022-12-08T08:55:01.052Z,5.40
2022-12-08T08:57:28.242Z,5.40
2022-12-08T08:59:55.901Z,5.40
2022-12-08T09:02:22.869Z,5.50
2022-12-08T09:04:49.866Z,5.50
2022-12-08T09:07:17.244Z,5.40
2022-12-08T09:09:44.204Z,5.30
2022-12-08T09:12:12.463Z,5.30
2022-12-08T09:14:40.158Z,5.20
2022-12-08T09:17:08.599Z,5.30
2022-12-08T09:19:35.663Z,5.40
2022-12-08T09:22:02.681Z,5.50
2022-12-08T09:24:30.711Z,5.40
2022-12-08T09:26:57.590Z,5.30
2022-12-08T09:29:25.646Z,5.40
2022-12-08T09:31:55.366Z,5.30
2022-12-08T09:34:23.151Z,5.50
2022-12-08T09:36:50.006Z,5.60
2022-12-08T09:39:17.683Z,5.90
2022-12-08T09:41:50.279Z,6.30
2022-12-08T09:44:30.817Z,6.60
2022-12-08T09:47:00.539Z,6.90
2022-12-08T09:49:45.165Z,6.90
2022-12-08T09:52:41.326Z,7.20
2022-12-08T09:55:24.527Z,7.60
2022-12-08T09:58:01.331Z,7.70
2022-12-08T10:00:28.218Z,8.00
2022-12-08T10:02:56.538Z,8.00
2022-12-08T10:05:25.984Z,8.10
2022-12-08T10:08:25.398Z,8.30
2022-12-08T10:10:59.005Z,8.60
2022-12-08T10:13:35.241Z,8.60
2022-12-08T10:16:15.111Z,8.50
2022-12-08T10:18:46.369Z,8.30
2022-12-08T10:21:19.192Z,8.00
2022-12-08T10:23:51.319Z,8.00
2022-12-08T10:26:20.905Z,8.00
2022-12-08T10:28:48.683Z,8.00
2022-12-08T10:31:16.904Z,8.10
2022-12-08T10:33:44.521Z,8.00
2022-12-08T10:36:12.292Z,8.20
2022-12-08T10:38:40.482Z,8.40
2022-12-08T10:41:10.309Z,8.60
2022-12-08T10:43:49.693Z,9.00
2022-12-08T10:46:20.104Z,9.30
2022-12-08T10:49:09.968Z,9.60
2022-12-08T10:51:42.678Z,9.60
2022-12-08T10:54:34.037Z,9.80
2022-12-08T10:57:01.082Z,10.00
2022-12-08T10:59:29.301Z,10.30
2022-12-08T11:01:57.897Z,10.10
2022-12-08T11:04:38.451Z,10.20
2022-12-08T11:07:06.251Z,10.20
2022-12-08T11:09:50.785Z,9.90
2022-12-08T11:12:20.687Z,10.10
2022-12-08T11:15:16.410Z,10.00
2022-12-08T11:17:46.314Z,10.20
2022-12-08T11:20:22.873Z,10.10
2022-12-08T11:22:55.160Z,10.30
2022-12-08T11:25:27.684Z,10.70
2022-12-08T11:27:59.029Z,11.10
2022-12-08T11:30:37.874Z,10.80
2022-12-08T11:33:23.758Z,11.00
2022-12-08T11:35:56.843Z,11.20
2022-12-08T11:38:26.438Z,11.20
2022-12-08T11:40:58.935Z,11.00
2022-12-08T11:43:29.526Z,11.00
2022-12-08T11:46:06.314Z,10.80
2022-12-08T11:49:04.190Z,10.70
2022-12-08T11:51:37.573Z,10.50
2022-12-08T11:54:13.254Z,10.50
2022-12-08T11:56:48.742Z,10.50
2022-12-08T11:59:41.850Z,10.30
2022-12-08T12:02:20.023Z,10.40
2022-12-08T12:04:52.136Z,10.20
2022-12-08T12:07:41.199Z,10.10
2022-12-08T12:10:20.388Z,10.00
2022-12-08T12:13:09.409Z,10.10
2022-12-08T12:16:10.977Z,10.30
2022-12-08T12:18:50.500Z,10.30
2022-12-08T12:21:29.374Z,10.40
2022-12-08T12:23:57.967Z,9.90
2022-12-08T12:26:56.537Z,9.90
2022-12-08T12:29:28.137Z,10.00
2022-12-08T12:32:04.901Z,10.20
2022-12-08T12:34:39.306Z,10.30
2022-12-08T12:37:10.706Z,10.50
2022-12-08T12:39:57.670Z,11.20
2022-12-08T12:42:43.360Z,11.50
2022-12-08T12:45:16.777Z,11.40
2022-12-08T12:47:56.036Z,10.40
2022-12-08T12:50:46.505Z,10.10
2022-12-08T12:53:16.188Z,9.70
2022-12-08T12:55:45.945Z,9.70
2022-12-08T12:58:28.538Z,9.50
2022-12-08T13:01:11.094Z,9.50
2022-12-08T13:03:44.148Z,9.80
2022-12-08T13:06:14.775Z,9.80
2022-12-08T13:08:51.934Z,9.70
2022-12-08T13:11:19.478Z,10.30
2022-12-08T13:14:01.392Z,10.50
2022-12-08T13:16:33.282Z,10.30
2022-12-08T13:19:04.250Z,10.30
2022-12-08T13:21:38.216Z,10.60
2022-12-08T13:24:20.606Z,10.60
2022-12-08T13:27:07.537Z,10.70
2022-12-08T13:29:35.881Z,10.60
2022-12-08T13:32:07.128Z,9.90
2022-12-08T13:34:55.067Z,9.70
2022-12-08T13:37:54.777Z,9.40
2022-12-08T13:40:27.766Z,9.20
2022-12-08T13:43:05.208Z,8.80
2022-12-08T13:56:16.753Z,8.80
2022-12-08T13:57:33.981Z,8.40
2022-12-08T14:00:05.301Z,8.10
2022-12-08T14:02:45.366Z,8.10
2022-12-08T14:05:19.004Z,8.30
2022-12-08T14:07:51.615Z,8.20
2022-12-08T14:10:26.510Z,8.30
2022-12-08T14:13:01.670Z,8.40
2022-12-08T14:15:37.184Z,8.20
2022-12-08T14:18:05.639Z,8.30
2022-12-08T14:20:51.915Z,8.30
2022-12-08T14:23:21.809Z,8.00
2022-12-08T14:25:48.967Z,8.30
2022-12-08T14:28:16.452Z,8.20
2022-12-08T14:30:43.398Z,8.00
2022-12-08T14:33:19.514Z,8.10
2022-12-08T14:35:52.173Z,8.20
2022-12-08T14:38:21.324Z,8.30
2022-12-08T14:41:01.106Z,8.30
2022-12-08T14:43:29.998Z,8.50
2022-12-08T14:46:06.642Z,8.30
2022-12-08T14:48:33.739Z,8.30
2022-12-08T14:51:06.812Z,8.10
2022-12-08T14:53:37.949Z,8.00
2022-12-08T14:56:20.943Z,8.00
2022-12-08T14:58:51.403Z,7.80
2022-12-08T15:01:23.584Z,7.80
2022-12-08T15:03:51.648Z,7.80
2022-12-08T15:06:22.386Z,8.00
2022-12-08T15:08:58.780Z,8.20
2022-12-08T15:11:36.375Z,8.10
2022-12-08T15:14:04.111Z,7.90
2022-12-08T15:16:38.697Z,7.90
2022-12-08T15:19:19.512Z,8.00
2022-12-08T15:21:47.550Z,8.00
2022-12-08T15:24:15.574Z,8.00
2022-12-08T15:26:49.089Z,8.10
2022-12-08T15:29:28.202Z,8.00
2022-12-08T15:31:58.431Z,7.80
2022-12-08T15:34:25.586Z,7.70
2022-12-08T15:36:54.574Z,7.80
2022-12-08T15:39:31.451Z,7.80
2022-12-08T15:41:59.728Z,7.80
2022-12-08T15:44:27.506Z,7.60
2022-12-08T15:46:54.617Z,7.60
2022-12-08T15:49:24.685Z,7.60
2022-12-08T15:51:57.406Z,7.40
2022-12-08T15:54:32.336Z,7.50
2022-12-08T15:59:46.475Z,7.30
2022-12-08T16:02:19.296Z,7.10
2022-12-08T16:07:38.240Z,7.40
2022-12-08T16:10:07.099Z,7.40
2022-12-08T16:16:01.129Z,7.50
2022-12-08T16:18:32.933Z,7.30
2022-12-08T16:21:16.925Z,7.10
2022-12-08T16:23:47.505Z,7.20
2022-12-08T16:26:54.492Z,7.10
2022-12-08T16:29:10.755Z,7.20
2022-12-08T16:31:38.020Z,7.20
2022-12-08T16:34:04.936Z,7.20
2022-12-08T16:36:32.753Z,7.20
2022-12-08T16:38:59.787Z,7.20
2022-12-08T16:41:45.237Z,7.10
2022-12-08T16:44:13.274Z,7.20
2022-12-08T16:46:40.550Z,7.20
2022-12-08T16:49:09.414Z,7.20
2022-12-08T16:51:36.513Z,7.20
2022-12-08T16:54:03.791Z,7.20
2022-12-08T16:56:33.454Z,7.00
2022-12-08T16:59:02.019Z,7.00
2022-12-08T17:01:29.195Z,7.00
2022-12-08T17:06:43.265Z,6.40
2022-12-08T17:09:10.320Z,6.30
2022-12-08T17:11:42.996Z,6.20
2022-12-08T17:14:15.264Z,6.30
2022-12-08T17:16:44.110Z,6.60
2022-12-08T17:19:13.995Z,6.70
2022-12-08T17:21:41.218Z,6.80
2022-12-08T17:24:08.353Z,6.80
2022-12-08T17:26:35.455Z,6.60
2022-12-08T17:29:12.316Z,6.40
2022-12-08T17:31:39.252Z,6.30
2022-12-08T17:34:11.095Z,6.00
2022-12-08T17:36:38.169Z,6.10
2022-12-08T17:39:06.376Z,6.10
2022-12-08T17:41:33.760Z,5.90
2022-12-08T17:44:01.248Z,5.80
2022-12-08T17:46:28.349Z,5.70
2022-12-08T17:48:55.698Z,6.00
2022-12-08T17:51:22.613Z,5.90
2022-12-08T17:53:49.965Z,5.80
2022-12-08T17:56:21.425Z,5.60
2022-12-08T17:58:54.385Z,5.40
2022-12-08T18:01:23.004Z,5.30
2022-12-08T18:03:50.190Z,5.20
2022-12-08T18:06:20.298Z,5.20
2022-12-08T18:08:48.817Z,5.30
2022-12-08T18:11:20.585Z,5.40
2022-12-08T18:13:49.699Z,5.20
2022-12-08T18:16:18.927Z,5.10
2022-12-08T18:18:45.891Z,5.10
2022-12-08T18:21:14.723Z,5.00
2022-12-08T18:23:44.677Z,5.00
2022-12-08T18:26:13.746Z,5.20
2022-12-08T18:28:41.092Z,5.50
2022-12-08T18:31:14.250Z,5.80
2022-12-08T18:33:42.993Z,5.80
2022-12-08T18:36:16.743Z,5.60
2022-12-08T18:38:44.436Z,5.50
2022-12-08T18:41:17.762Z,5.60
2022-12-08T18:43:45.114Z,5.70
2022-12-08T18:46:13.752Z,5.80
2022-12-08T18:48:44.104Z,5.90
2022-12-08T18:51:15.298Z,5.90
2022-12-08T18:53:42.641Z,5.70
2022-12-08T18:56:19.940Z,5.70
2022-12-08T18:58:47.084Z,5.50
2022-12-08T19:01:14.544Z,5.40
2022-12-08T19:03:52.813Z,5.20
2022-12-08T19:06:30.135Z,4.90
2022-12-08T19:08:57.720Z,4.70
2022-12-08T19:11:28.795Z,4.60
2022-12-08T19:13:56.749Z,4.60
2022-12-08T19:16:23.811Z,4.50
2022-12-08T19:18:50.938Z,4.50
2022-12-08T19:21:17.955Z,4.70
2022-12-08T19:23:44.931Z,4.90
2022-12-08T19:26:12.630Z,5.10
2022-12-08T19:28:41.426Z,5.30
2022-12-08T19:31:10.273Z,5.40
2022-12-08T19:33:39.148Z,5.40
2022-12-08T19:36:13.583Z,5.00
2022-12-08T19:38:59.589Z,4.80
2022-12-08T19:41:45.996Z,4.70
2022-12-08T19:44:35.010Z,4.70
2022-12-08T19:47:02.835Z,4.40
2022-12-08T19:49:30.177Z,4.50
2022-12-08T19:51:57.856Z,4.50
2022-12-08T19:54:25.393Z,4.80
2022-12-08T19:56:52.263Z,4.80
2022-12-08T19:59:19.641Z,4.90
2022-12-08T20:01:48.481Z,5.10
2022-12-08T20:04:17.381Z,4.80
2022-12-08T20:06:45.750Z,4.90
2022-12-08T20:09:14.219Z,5.00
2022-12-08T20:11:41.881Z,5.20
2022-12-08T20:14:10.140Z,5.20
2022-12-08T20:16:37.456Z,5.10
2022-12-08T20:19:04.564Z,4.90
2022-12-08T20:21:31.435Z,4.90
2022-12-08T20:23:58.386Z,4.80
2022-12-08T20:26:25.289Z,4.60
2022-12-08T20:28:52.936Z,4.40
2022-12-08T20:31:28.579Z,4.20
2022-12-08T20:33:55.819Z,4.20
2022-12-08T20:36:23.503Z,4.30
2022-12-08T20:38:52.221Z,4.40
2022-12-08T20:41:20.121Z,4.60
2022-12-08T20:43:48.041Z,4.70
2022-12-08T20:46:17.707Z,4.80
2022-12-08T20:48:45.221Z,4.90
2022-12-08T20:51:17.108Z,5.10
2022-12-08T20:53:44.401Z,5.10
2022-12-08T20:56:23.038Z,5.10
2022-12-08T20:58:51.249Z,4.80
2022-12-08T21:01:21.637Z,4.50
2022-12-08T21:03:49.821Z,4.60
2022-12-08T21:06:19.933Z,4.60
2022-12-08T21:08:46.977Z,4.60
2022-12-08T21:11:14.019Z,4.40
2022-12-08T21:13:43.443Z,4.30
2022-12-08T21:16:15.595Z,4.10
2022-12-08T21:18:43.195Z,4.20
2022-12-08T21:21:14.289Z,4.30
2022-12-08T21:23:42.852Z,4.20
2022-12-08T21:26:16.568Z,4.10
2022-12-08T21:28:44.225Z,4.20
2022-12-08T21:31:14.088Z,4.20
2022-12-08T21:33:41.576Z,4.40
2022-12-08T21:36:14.352Z,4.60
2022-12-08T21:38:42.268Z,4.60
2022-12-08T21:41:12.841Z,4.50
2022-12-08T21:43:40.462Z,4.30
2022-12-08T21:46:13.824Z,4.20
2022-12-08T21:48:41.190Z,4.00
2022-12-08T21:51:08.371Z,4.10
2022-12-08T21:53:35.783Z,4.30
2022-12-08T21:56:07.786Z,4.50
2022-12-08T21:58:35.007Z,4.40
2022-12-08T22:01:07.291Z,4.20
2022-12-08T22:03:34.584Z,4.10
2022-12-08T22:06:10.174Z,4.10
2022-12-08T22:08:37.825Z,4.30
2022-12-08T22:11:06.066Z,4.20
2022-12-08T22:13:41.262Z,4.10
2022-12-08T22:16:12.132Z,3.90
2022-12-08T22:18:39.328Z,3.80
2022-12-08T22:21:15.367Z,3.80
2022-12-08T22:23:46.706Z,3.90
2022-12-08T22:26:13.691Z,3.90
2022-12-08T22:28:43.308Z,4.10
2022-12-08T22:31:16.129Z,3.90
2022-12-08T22:33:43.745Z,3.80
2022-12-08T22:36:16.361Z,3.90
2022-12-08T22:38:43.627Z,4.00
2022-12-08T22:41:10.810Z,3.90
2022-12-08T22:43:38.230Z,4.10
2022-12-08T22:46:15.082Z,4.00
2022-12-08T22:48:42.389Z,4.10
2022-12-08T22:51:10.122Z,4.40
2022-12-08T22:53:38.145Z,4.50
2022-12-08T22:56:10.464Z,4.50
2022-12-08T22:58:39.488Z,4.20
2022-12-08T23:01:07.059Z,4.10
2022-12-08T23:03:34.333Z,4.00
2022-12-08T23:06:02.270Z,4.00
2022-12-08T23:08:29.486Z,3.70
2022-12-08T23:10:56.534Z,3.40
2022-12-08T23:13:23.899Z,3.50
2022-12-08T23:15:50.924Z,3.70
2022-12-08T23:18:19.306Z,3.90
2022-12-08T23:20:47.647Z,3.90
2022-12-08T23:23:15.478Z,3.80
2022-12-08T23:25:43.815Z,3.60
2022-12-08T23:28:11.419Z,3.40
2022-12-08T23:30:41.983Z,3.60
2022-12-08T23:33:09.213Z,3.70
2022-12-08T23:35:36.326Z,3.60
2022-12-08T23:38:03.796Z,3.60
2022-12-08T23:40:30.867Z,3.80
2022-12-08T23:42:57.901Z,4.00
2022-12-08T23:45:24.790Z,4.00
2022-12-08T23:47:51.935Z,3.90
2022-12-08T23:50:22.005Z,3.80
2022-12-08T23:52:49.092Z,3.90
2022-12-08T23:55:19.295Z,3.80
2022-12-08T23:57:47.298Z,3.50
